TJSJ/SJU METAR and TAF weather

Enter ICAO airport designator
Station Type Date Time Source
TJSJ METAR 2023/09/28 20:56 UTC NOAA

TJSJ 282056Z 05010KT 10SM SCT026 31/26 A2982 RMK AO2 SLP097 SHRA DSNT W CB DSNT W T03110256 55004


Station Type Date Time Source
TJSJ Decoded METAR 2023/09/28 20:56 UTC NOAA

San Juan, Luis Munoz Marin International Airport, PR, United States (TJSJ) 18-27N 066-00W
Sep 28, 2023 - 04:56 PM EDT / 2023.09.28 2056 UTC
Wind: from the NE (050 degrees) at 12 MPH (10 KT):0
Visibility: 10 mile(s):0
Sky conditions: partly cloudy
Weather: Cumulonimbus clouds observed
Temperature: 88.0 F (31.1 C)
Heat index: 101.3 F (38.5 C):1
Dew Point: 78.1 F (25.6 C)
Relative Humidity: 72%
Pressure (altimeter): 29.82 in. Hg (1009 hPa)
Pressure tendency: 0.01 inches (0.4 hPa) lower than three hours ago
ob: TJSJ 282056Z 05010KT 10SM SCT026 31/26 A2982 RMK AO2 SLP097 SHRA DSNT W CB DSNT W T03110256 55004
cycle: 21

Station Type Date Time Source
TJSJ TAF 2023/09/28 18:54 UTC NOAA

TAF TJSJ 281747Z 2818/2918 06015KT P6SM SCT028 SCT060
FM282200 VRB05KT P6SM VCSH FEW025 SCT040
FM290200 VRB02KT P6SM FEW025 SCT060 PROB30 2908/2912 -SHRA SCT025 BKN040
FM291400 06012KT P6SM SCT030 SCT050

Example: see airport list